Terminal Aerodrome Forecast
Issued by NWS Spokane, WA

Home | Current Version | Previous Version | Text Only | Print | Product List | Glossary On
Versions: 1 2 3 4 5 6 7 8 9 10 11 12 13 14 15 16 17 18 19 20 21 22 23 24 25 26 27 28 29 30 31 32 33 34 35 36
000
FTUS46 KOTX 231139
TAFGEG
TAF
KGEG 231139Z 2312/2412 19006KT P6SM FEW120 SCT200
     FM231400 10006KT P6SM SCT200
     FM231800 06010KT P6SM FEW070
     FM240100 10006KT P6SM FEW080=

USA.gov is the U.S. government's official web portal to all federal, state and local government web resources and services.